St. Pete Clearwater International Airport

Date: 2024-06-11 05:53:00Z

Type: METAR

Weather: Light Rain

Winds: 190° at 6 kts

Visibility: 6

Ceiling (AGL FT): Clouds FEW at 4200, BROKEN at 7000, OVERCAST at 8500, OVERCAST at 4700

RAW METAR: KPIE 110553Z AUTO 19006KT 6SM -RA BR FEW042 BKN070 OVC085 26/26 A2988 RMK AO2 RAB15 SLP116 P0001 60022 T02560256 10306 20233 55002

project-image